Time;durP1;ratioP1;P1;durP2;ratioP2;P2;SDS_P1;SDS_P2;PMS_P1;PMS_P2;Temp;Humidity;BMP_temperature;BMP_pressure;BME280_temperature;BME280_humidity;BME280_pressure;Samples;Min_cycle;Max_cycle;Signal;HPM_P1;HPM_P2
2023/01/02 00:00:56;;;;;;;12.23;6.25;;;;;;;13.12;60.84;100720.84;4187191;28;20036;-69
2023/01/02 00:02:59;;;;;;;10.10;4.65;;;;;;;13.06;60.80;100719.06;4184837;28;20037;-68
2023/01/02 00:05:02;;;;;;;11.73;5.00;;;;;;;13.03;61.63;100707.75;4194027;28;20052;-69
2023/01/02 00:07:05;;;;;;;9.55;4.10;;;;;;;13.01;61.55;100707.75;4194394;28;20045;-69
2023/01/02 00:09:09;;;;;;;10.10;5.00;;;;;;;13.06;61.27;100699.94;4190079;28;20055;-68
2023/01/02 00:11:12;;;;;;;12.35;5.13;;;;;;;13.05;61.14;100698.19;4190659;28;20033;-68
2023/01/02 00:13:16;;;;;;;10.80;4.85;;;;;;;13.05;61.41;100692.97;4188877;28;20043;-68
2023/01/02 00:15:19;;;;;;;11.88;4.05;;;;;;;13.04;61.46;100691.19;4190649;28;20127;-68
2023/01/02 00:17:22;;;;;;;10.98;5.13;;;;;;;13.07;61.43;100675.59;4192413;28;20040;-68
2023/01/02 00:19:25;;;;;;;10.30;5.03;;;;;;;13.05;60.88;100679.91;4210419;28;20036;-68
2023/01/02 00:21:28;;;;;;;11.32;3.90;;;;;;;13.09;60.58;100677.31;4210203;28;20525;-68
2023/01/02 00:23:31;;;;;;;10.88;4.32;;;;;;;13.06;61.01;100671.22;4197026;28;20411;-68
2023/01/02 00:25:34;;;;;;;17.67;9.35;;;;;;;13.10;60.91;100673.00;4195263;28;20048;-68
2023/01/02 00:27:37;;;;;;;32.17;19.75;;;;;;;13.12;60.28;100675.63;4190799;28;20066;-68
2023/01/02 00:29:41;;;;;;;20.92;8.82;;;;;;;13.12;60.10;100673.88;4176871;28;20075;-69
2023/01/02 00:31:44;;;;;;;71.43;40.50;;;;;;;13.10;60.21;100675.63;4194249;28;20395;-69
2023/01/02 00:33:47;;;;;;;58.35;33.13;;;;;;;13.15;59.62;100676.50;4195758;28;20314;-68
2023/01/02 00:35:49;;;;;;;32.50;16.95;;;;;;;13.21;59.72;100671.31;4189679;28;20406;-68
2023/01/02 00:37:52;;;;;;;14.27;8.65;;;;;;;13.21;60.07;100676.53;4196251;28;20532;-68
2023/01/02 00:39:55;;;;;;;22.48;12.68;;;;;;;13.19;59.73;100673.06;4178604;28;20067;-68
2023/01/02 00:41:58;;;;;;;20.50;11.48;;;;;;;13.20;60.38;100666.97;4195377;28;20067;-69
2023/01/02 00:44:01;;;;;;;23.20;11.23;;;;;;;13.25;59.55;100672.22;4193842;28;20048;-68
2023/01/02 00:46:06;;;;;;;17.27;9.15;;;;;;;13.24;60.05;100666.16;4192240;28;20037;-68
2023/01/02 00:48:13;;;;;;;14.70;7.22;;;;;;;13.24;59.74;100662.63;4191532;28;20043;-69
2023/01/02 00:50:16;;;;;;;13.38;7.47;;;;;;;13.28;59.07;100657.44;4195947;28;20478;-68
2023/01/02 00:52:19;;;;;;;19.90;9.23;;;;;;;13.31;59.04;100668.78;4192600;28;20043;-69
2023/01/02 00:54:22;;;;;;;14.10;6.35;;;;;;;13.27;59.00;100667.88;4195582;28;20046;-68
2023/01/02 00:56:25;;;;;;;13.50;5.88;;;;;;;13.35;58.66;100667.97;4195987;28;20508;-69
2023/01/02 00:58:27;;;;;;;13.52;5.93;;;;;;;13.39;58.67;100664.50;4197124;28;20036;-69
2023/01/02 01:00:30;;;;;;;9.80;4.40;;;;;;;13.42;58.75;100668.03;4192807;28;20044;-68
2023/01/02 01:02:34;;;;;;;9.68;4.22;;;;;;;13.45;58.52;100659.34;4197019;28;20025;-69
2023/01/02 01:04:38;;;;;;;9.15;3.67;;;;;;;13.43;59.05;100668.88;4193057;28;20045;-69
2023/01/02 01:06:41;;;;;;;9.18;3.45;;;;;;;13.45;59.09;100664.56;4194558;28;20036;-69
2023/01/02 01:08:43;;;;;;;8.10;4.15;;;;;;;13.41;59.36;100668.00;4193981;28;20376;-68
2023/01/02 01:10:46;;;;;;;7.68;3.72;;;;;;;13.38;58.75;100668.00;4195264;28;20032;-69
2023/01/02 01:12:49;;;;;;;10.25;4.10;;;;;;;13.37;59.30;100664.50;4192642;28;20067;-68
2023/01/02 01:14:52;;;;;;;8.93;3.85;;;;;;;13.35;59.14;100657.53;4196376;28;20413;-69
2023/01/02 01:16:55;;;;;;;9.10;3.65;;;;;;;13.32;59.12;100658.34;4195807;28;20040;-69
2023/01/02 01:18:59;;;;;;;11.13;3.75;;;;;;;13.32;59.41;100657.50;4200423;28;20040;-69
2023/01/02 01:21:06;;;;;;;7.65;3.65;;;;;;;13.31;59.26;100655.72;4197225;28;20090;-68
2023/01/02 01:23:09;;;;;;;10.07;3.97;;;;;;;13.30;59.15;100653.97;4196890;28;20502;-69
2023/01/02 01:25:12;;;;;;;8.82;3.58;;;;;;;13.27;59.35;100654.81;4196954;28;20098;-69
2023/01/02 01:27:14;;;;;;;14.27;3.60;;;;;;;13.30;59.66;100654.84;4197222;28;20101;-69
2023/01/02 01:29:18;;;;;;;9.60;3.50;;;;;;;13.29;59.75;100647.88;4197216;28;20509;-69
2023/01/02 01:31:22;;;;;;;7.78;3.58;;;;;;;13.31;59.13;100650.50;4195884;28;20134;-68
2023/01/02 01:33:25;;;;;;;12.77;3.72;;;;;;;13.28;59.33;100657.44;4196373;28;20037;-68
2023/01/02 01:35:29;;;;;;;8.10;3.20;;;;;;;13.29;59.03;100650.50;4197073;28;20039;-69
2023/01/02 01:37:32;;;;;;;8.73;3.28;;;;;;;13.20;59.77;100653.94;4196208;28;20036;-68
2023/01/02 01:39:35;;;;;;;13.20;4.45;;;;;;;13.31;58.87;100660.94;4196882;28;20036;-69
2023/01/02 01:41:38;;;;;;;10.02;3.75;;;;;;;13.30;59.15;100656.59;4196236;28;20082;-69
2023/01/02 01:43:43;;;;;;;8.90;4.05;;;;;;;13.26;58.84;100653.97;4193420;28;20040;-68
2023/01/02 01:45:46;;;;;;;9.57;3.30;;;;;;;13.25;59.13;100656.56;4193599;28;20095;-69
2023/01/02 01:47:53;;;;;;;10.48;4.57;;;;;;;13.32;58.93;100654.88;4194098;28;20078;-69
2023/01/02 01:50:00;;;;;;;5.53;3.05;;;;;;;13.31;58.79;100650.50;4196082;28;20074;-69
2023/01/02 01:52:13;;;;;;;12.10;4.22;;;;;;;13.30;58.83;100651.38;4199091;28;20406;-69
2023/01/02 01:54:21;;;;;;;8.30;3.70;;;;;;;13.29;58.65;100653.13;4198514;28;20086;-69
2023/01/02 01:56:24;;;;;;;9.38;3.90;;;;;;;13.26;58.51;100648.75;4196615;28;20044;-69
2023/01/02 01:58:31;;;;;;;9.70;3.78;;;;;;;13.27;58.31;100644.38;4200021;28;20524;-69
2023/01/02 02:00:40;;;;;;;9.35;3.80;;;;;;;13.25;58.72;100640.91;4194393;28;20033;-69
2023/01/02 02:02:47;;;;;;;9.63;3.65;;;;;;;13.25;58.84;100641.75;4192660;28;20102;-69
2023/01/02 02:04:51;;;;;;;6.85;3.50;;;;;;;13.27;59.10;100636.53;4190292;28;20473;-68
2023/01/02 02:06:54;;;;;;;8.30;3.92;;;;;;;13.34;58.30;100640.06;4197590;28;20049;-68
2023/01/02 02:09:02;;;;;;;7.28;3.55;;;;;;;13.27;58.49;100644.38;4193456;28;20052;-68
2023/01/02 02:11:05;;;;;;;7.85;3.75;;;;;;;13.26;58.31;100634.81;4192572;28;20055;-68
2023/01/02 02:13:08;;;;;;;9.90;4.07;;;;;;;13.19;59.14;100633.91;4197653;28;20479;-68
2023/01/02 02:15:16;;;;;;;5.88;3.15;;;;;;;13.20;58.72;100630.44;4191699;28;20059;-69
2023/01/02 02:17:32;;;;;;;9.95;4.05;;;;;;;13.20;58.80;100630.44;4193464;28;20044;-69
2023/01/02 02:19:58;;;;;;;9.07;3.28;;;;;;;13.21;58.79;100616.50;4194776;28;20043;-69
2023/01/02 02:22:19;;;;;;;12.93;3.72;;;;;;;13.24;58.20;100624.38;4192785;28;20105;-69
2023/01/02 02:24:54;;;;;;;9.13;3.75;;;;;;;13.30;58.10;100620.03;4196882;28;20041;-68
2023/01/02 02:27:10;;;;;;;9.85;3.83;;;;;;;13.24;58.79;100607.81;4175259;28;20407;-69
2023/01/02 02:29:51;;;;;;;12.00;3.22;;;;;;;13.17;58.78;100630.41;4197233;28;20044;-68
2023/01/02 02:32:02;;;;;;;8.98;3.47;;;;;;;13.20;59.38;100627.81;4191408;28;20041;-68
2023/01/02 02:34:12;;;;;;;6.07;3.08;;;;;;;13.21;58.89;100619.09;4193490;28;20033;-69
2023/01/02 02:36:23;;;;;;;10.93;3.42;;;;;;;13.21;59.29;100631.28;4194062;28;20090;-69
2023/01/02 02:38:40;;;;;;;9.60;3.35;;;;;;;13.23;58.89;100622.63;4198259;28;20090;-69
2023/01/02 02:40:53;;;;;;;6.78;3.60;;;;;;;13.19;58.91;100626.06;4178976;28;20537;-69
2023/01/02 02:43:07;;;;;;;7.95;3.58;;;;;;;13.16;59.30;100607.78;4188569;28;20094;-68
2023/01/02 02:45:22;;;;;;;11.70;3.42;;;;;;;13.18;58.84;100615.63;4195669;28;20110;-69
2023/01/02 02:47:33;;;;;;;8.10;3.53;;;;;;;13.17;59.09;100622.59;4197336;28;20516;-68
2023/01/02 02:49:48;;;;;;;10.70;3.95;;;;;;;13.18;59.28;100619.09;4196040;28;20031;-69
2023/01/02 02:51:59;;;;;;;8.50;3.30;;;;;;;13.16;59.19;100613.00;4195181;28;20075;-69
2023/01/02 02:54:06;;;;;;;7.05;3.00;;;;;;;13.17;59.12;100621.69;4196987;28;20036;-69
2023/01/02 02:56:11;;;;;;;9.82;3.53;;;;;;;13.16;59.08;100625.19;4193448;28;20068;-69
2023/01/02 02:58:16;;;;;;;7.03;3.50;;;;;;;13.20;58.73;100622.59;4198054;28;20486;-69
2023/01/02 03:00:22;;;;;;;9.35;3.88;;;;;;;13.19;58.88;100612.16;4196568;28;20040;-69
2023/01/02 03:02:25;;;;;;;10.65;3.35;;;;;;;13.16;58.99;100609.53;4198085;28;20410;-69
2023/01/02 03:04:28;;;;;;;9.55;3.53;;;;;;;13.13;59.35;100615.59;4197245;28;20033;-69
2023/01/02 03:06:47;;;;;;;9.52;3.35;;;;;;;13.17;59.23;100609.53;4195527;28;20099;-69
2023/01/02 03:09:03;;;;;;;10.63;4.10;;;;;;;13.17;59.04;100599.09;4197011;28;20517;-69
2023/01/02 03:11:06;;;;;;;9.82;3.92;;;;;;;13.10;59.51;100599.91;4198469;28;20066;-69
2023/01/02 03:13:14;;;;;;;8.25;3.15;;;;;;;13.05;59.59;100594.69;4198178;28;20067;-69
2023/01/02 03:15:26;;;;;;;10.95;3.83;;;;;;;13.07;59.37;100592.06;4198828;28;20495;-69
2023/01/02 03:17:38;;;;;;;9.23;3.90;;;;;;;13.03;59.67;100599.00;4197759;28;20059;-69
2023/01/02 03:19:45;;;;;;;8.32;3.17;;;;;;;13.00;59.92;100590.28;4181918;28;20075;-69
2023/01/02 03:21:52;;;;;;;6.20;3.17;;;;;;;12.99;59.88;100597.22;4182545;28;20060;-69
2023/01/02 03:24:00;;;;;;;5.70;3.30;;;;;;;12.99;59.53;100597.22;4193127;28;20082;-69
2023/01/02 03:26:04;;;;;;;9.93;3.13;;;;;;;12.99;60.07;100607.66;4199064;28;20041;-69
2023/01/02 03:28:10;;;;;;;8.43;3.05;;;;;;;12.98;59.93;100607.66;4198980;28;20041;-68
2023/01/02 03:30:16;;;;;;;7.40;3.15;;;;;;;13.00;59.95;100600.72;4197423;28;20040;-69
2023/01/02 03:32:23;;;;;;;9.85;3.50;;;;;;;13.03;59.07;100605.97;4197704;28;20102;-69
2023/01/02 03:34:31;;;;;;;11.55;3.42;;;;;;;13.02;59.21;100614.66;4198045;28;20056;-69
2023/01/02 03:36:37;;;;;;;7.25;3.83;;;;;;;13.06;59.65;100603.38;4197065;28;20490;-69
2023/01/02 03:38:47;;;;;;;8.73;3.17;;;;;;;13.00;59.58;100598.97;4198837;28;20647;-69
2023/01/02 03:40:58;;;;;;;8.48;3.53;;;;;;;13.04;58.49;100605.06;4198814;28;20044;-69
2023/01/02 03:43:06;;;;;;;7.90;3.33;;;;;;;13.13;58.19;100610.38;4195235;28;20457;-68
2023/01/02 03:45:15;;;;;;;7.10;3.17;;;;;;;13.07;58.63;100623.41;4196303;28;20091;-68
2023/01/02 03:47:26;;;;;;;11.95;3.22;;;;;;;13.07;59.20;100626.00;4195679;28;20052;-68
2023/01/02 03:49:32;;;;;;;5.43;2.78;;;;;;;13.04;58.90;100620.72;4193489;28;20036;-70
2023/01/02 03:51:35;;;;;;;8.68;3.40;;;;;;;13.03;59.06;100617.25;4193686;28;20036;-69
2023/01/02 03:53:39;;;;;;;7.00;2.83;;;;;;;13.05;59.12;100606.84;4193660;28;20521;-68
2023/01/02 03:55:54;;;;;;;8.32;3.25;;;;;;;13.04;59.22;100615.50;4195138;28;20044;-69
2023/01/02 03:58:04;;;;;;;8.90;3.92;;;;;;;12.96;59.22;100619.81;4196685;28;20102;-69
2023/01/02 04:00:10;;;;;;;7.82;3.17;;;;;;;12.95;59.27;100615.47;4191000;28;20383;-69
2023/01/02 04:02:26;;;;;;;10.98;3.85;;;;;;;12.98;59.38;100620.69;4198142;28;20115;-69
2023/01/02 04:04:38;;;;;;;9.75;3.90;;;;;;;13.00;59.36;100619.00;4193501;28;20056;-70
2023/01/02 04:06:47;;;;;;;7.72;3.10;;;;;;;13.00;59.50;100616.38;4194411;28;20119;-69
2023/01/02 04:08:57;;;;;;;9.32;3.90;;;;;;;12.96;59.25;100610.25;4186479;28;20044;-69
2023/01/02 04:11:03;;;;;;;7.68;3.30;;;;;;;12.97;59.54;100612.00;4190329;28;20043;-69
2023/01/02 04:13:15;;;;;;;6.75;3.03;;;;;;;12.97;59.28;100629.41;4191695;28;20090;-68
2023/01/02 04:15:21;;;;;;;7.30;3.13;;;;;;;12.96;59.37;100627.66;4192451;28;20093;-69
2023/01/02 04:17:26;;;;;;;8.45;3.63;;;;;;;12.98;58.89;100620.69;4196480;28;20066;-69
2023/01/02 04:19:35;;;;;;;6.50;2.83;;;;;;;12.99;58.56;100623.31;4196621;28;20033;-69
2023/01/02 04:21:40;;;;;;;5.20;2.88;;;;;;;13.01;58.47;100625.94;4193823;28;20314;-68
2023/01/02 04:23:50;;;;;;;7.95;3.20;;;;;;;12.97;59.03;100626.81;4189314;28;20037;-69
2023/01/02 04:25:56;;;;;;;8.10;3.38;;;;;;;12.93;58.71;100621.53;4188986;28;20051;-69
2023/01/02 04:28:03;;;;;;;6.43;3.33;;;;;;;12.93;59.34;100618.94;4196010;28;20097;-68
2023/01/02 04:30:07;;;;;;;8.02;3.28;;;;;;;12.95;59.07;100618.06;4193931;28;20402;-69
2023/01/02 04:32:15;;;;;;;11.25;3.72;;;;;;;12.93;58.58;100616.31;4195617;28;20094;-69
2023/01/02 04:34:19;;;;;;;8.07;3.35;;;;;;;12.95;58.54;100620.69;4194115;28;20489;-69
2023/01/02 04:36:24;;;;;;;6.82;3.05;;;;;;;12.91;58.63;100610.22;4193717;28;20327;-68
2023/01/02 04:38:26;;;;;;;11.93;3.78;;;;;;;12.90;58.65;100618.91;4196299;28;20041;-70
2023/01/02 04:40:30;;;;;;;7.55;2.80;;;;;;;12.88;58.63;100607.59;4189407;28;20558;-69
2023/01/02 04:42:33;;;;;;;6.88;3.42;;;;;;;12.95;58.42;100610.25;4197577;28;20036;-69
2023/01/02 04:44:36;;;;;;;7.85;3.47;;;;;;;12.89;58.62;100616.28;4190050;28;20556;-70
2023/01/02 04:46:39;;;;;;;6.97;2.80;;;;;;;12.85;58.74;100610.19;4203608;28;20078;-69
2023/01/02 04:48:41;;;;;;;8.68;2.90;;;;;;;12.83;58.69;100604.06;4195512;28;20084;-70
2023/01/02 04:50:45;;;;;;;7.05;3.30;;;;;;;12.84;58.83;100604.97;4195637;28;20139;-69
2023/01/02 04:52:49;;;;;;;4.75;2.97;;;;;;;12.81;59.13;100618.00;4194942;28;20039;-70
2023/01/02 04:54:52;;;;;;;7.45;3.10;;;;;;;12.80;59.08;100614.50;4182308;28;20167;-70
2023/01/02 04:56:55;;;;;;;12.05;3.47;;;;;;;12.79;59.03;100612.75;4194542;28;20044;-69
2023/01/02 04:58:58;;;;;;;6.82;3.10;;;;;;;12.79;59.04;100609.25;4197208;28;20040;-69
2023/01/02 05:01:01;;;;;;;11.23;3.15;;;;;;;12.77;58.92;100617.06;4195712;28;20423;-70
2023/01/02 05:03:04;;;;;;;5.93;2.95;;;;;;;12.82;58.62;100623.22;4193482;28;20050;-70
2023/01/02 05:05:08;;;;;;;5.55;2.90;;;;;;;12.79;58.73;100631.03;4189843;28;20041;-70
2023/01/02 05:07:11;;;;;;;11.03;3.63;;;;;;;12.78;58.75;100621.44;4193812;28;20482;-70
2023/01/02 05:09:16;;;;;;;8.10;3.20;;;;;;;12.79;58.22;100620.59;4196236;28;20060;-70
2023/01/02 05:11:21;;;;;;;9.02;3.65;;;;;;;12.81;58.33;100621.47;4195534;28;20040;-70
2023/01/02 05:13:23;;;;;;;7.53;3.35;;;;;;;12.77;58.39;100626.66;4196215;28;20070;-70
2023/01/02 05:15:26;;;;;;;8.20;3.17;;;;;;;12.75;58.64;100631.84;4196850;28;20445;-70
2023/01/02 05:17:29;;;;;;;10.40;3.25;;;;;;;12.77;58.46;100632.72;4192830;28;20063;-68
2023/01/02 05:19:32;;;;;;;10.57;3.25;;;;;;;12.79;58.21;100636.25;4194084;28;20052;-69
2023/01/02 05:23:56;;;;;;;11.13;3.50;;;;;;;12.68;58.84;100640.50;4191833;28;20040;-69
2023/01/02 05:26:00;;;;;;;9.60;3.40;;;;;;;12.74;58.49;100635.31;4198416;28;20040;-69
2023/01/02 05:28:04;;;;;;;9.40;3.60;;;;;;;12.73;58.30;100655.31;4199956;28;20039;-69
2023/01/02 05:30:08;;;;;;;7.97;3.65;;;;;;;12.71;58.14;100658.78;4205950;28;20095;-69
2023/01/02 05:32:10;;;;;;;8.68;4.13;;;;;;;12.71;58.46;100651.81;4195262;28;20040;-69
2023/01/02 05:34:15;;;;;;;4.80;2.70;;;;;;;12.71;58.15;100654.41;4200192;28;20046;-69
2023/01/02 05:36:18;;;;;;;8.70;3.33;;;;;;;12.71;58.37;100653.56;4195459;28;20110;-69
2023/01/02 05:38:20;;;;;;;6.60;2.72;;;;;;;12.68;58.13;100666.56;4192380;28;20051;-69
2023/01/02 05:40:23;;;;;;;8.20;3.17;;;;;;;12.62;58.66;100669.13;4193161;28;20157;-69
2023/01/02 05:42:28;;;;;;;6.13;3.17;;;;;;;12.58;58.53;100676.91;4196589;28;20032;-68
2023/01/02 05:44:30;;;;;;;8.05;2.80;;;;;;;12.62;58.32;100670.00;4191914;28;20044;-69
2023/01/02 05:46:33;;;;;;;10.48;3.85;;;;;;;12.66;58.32;100682.22;4196870;28;20037;-69
2023/01/02 05:48:37;;;;;;;7.15;3.60;;;;;;;12.67;58.75;100681.34;4195470;28;20063;-69
2023/01/02 05:50:39;;;;;;;7.32;3.00;;;;;;;12.68;58.14;100679.63;4197359;28;20090;-69
2023/01/02 05:52:45;;;;;;;6.20;2.65;;;;;;;12.67;58.42;100680.47;4198101;28;20039;-69
2023/01/02 05:54:48;;;;;;;5.85;2.75;;;;;;;12.68;58.13;100687.44;4195554;28;20039;-69
2023/01/02 05:56:50;;;;;;;6.45;2.88;;;;;;;12.64;58.39;100683.91;4205247;28;20052;-69
2023/01/02 05:58:55;;;;;;;8.43;2.70;;;;;;;12.68;58.21;100679.63;4202869;28;20131;-69
2023/01/02 06:01:03;;;;;;;9.63;3.47;;;;;;;12.65;58.17;100676.97;4196778;28;20051;-69
2023/01/02 06:03:06;;;;;;;7.63;3.63;;;;;;;12.62;58.29;100679.56;4197556;28;20041;-69
2023/01/02 06:05:09;;;;;;;9.43;2.60;;;;;;;12.54;58.85;100688.19;4195660;28;20395;-69
2023/01/02 06:07:12;;;;;;;6.57;3.10;;;;;;;12.54;58.59;100690.78;4194927;28;20040;-69
2023/01/02 06:09:16;;;;;;;5.05;2.78;;;;;;;12.52;58.77;100689.03;4197693;28;20099;-69
2023/01/02 06:11:19;;;;;;;8.52;3.13;;;;;;;12.53;58.89;100690.78;4210368;28;20099;-69
2023/01/02 06:13:22;;;;;;;8.02;3.75;;;;;;;12.53;58.78;100694.25;4198058;28;20441;-69
2023/01/02 06:15:26;;;;;;;9.50;3.60;;;;;;;12.57;58.77;100696.03;4200563;28;20032;-69
2023/01/02 06:17:29;;;;;;;7.00;3.45;;;;;;;12.51;58.78;100693.38;4196065;28;20062;-69
2023/01/02 06:19:32;;;;;;;9.07;3.20;;;;;;;12.53;58.83;100690.78;4195802;28;20036;-69
2023/01/02 06:21:34;;;;;;;10.68;3.25;;;;;;;12.55;58.54;100700.34;4195036;28;20052;-69
2023/01/02 06:23:38;;;;;;;4.22;2.72;;;;;;;12.50;58.76;100699.44;4199841;28;20041;-69
2023/01/02 06:25:41;;;;;;;10.88;3.05;;;;;;;12.48;59.13;100695.94;4190125;28;20036;-69
2023/01/02 06:27:43;;;;;;;7.60;2.85;;;;;;;12.47;59.10;100702.03;4202688;28;20494;-69
2023/01/02 06:29:46;;;;;;;7.47;3.28;;;;;;;12.47;59.19;100701.13;4196652;28;20033;-69
2023/01/02 06:31:50;;;;;;;6.03;3.08;;;;;;;12.46;59.35;100704.63;4187880;28;20414;-69
2023/01/02 06:33:54;;;;;;;9.32;3.00;;;;;;;12.43;59.24;100702.84;4196485;28;20040;-69
2023/01/02 06:35:58;;;;;;;8.18;2.70;;;;;;;12.42;59.33;100708.91;4185671;28;20589;-69
2023/01/02 06:38:01;;;;;;;8.33;2.97;;;;;;;12.42;59.09;100705.44;4194806;28;20035;-69
2023/01/02 06:40:04;;;;;;;9.07;3.13;;;;;;;12.45;58.99;100708.94;4197863;28;20044;-68
2023/01/02 06:42:07;;;;;;;7.68;3.00;;;;;;;12.44;58.97;100712.44;4197981;28;20049;-69
2023/01/02 06:44:12;;;;;;;7.18;2.60;;;;;;;12.42;58.98;100714.13;4197703;28;20044;-69
2023/01/02 06:46:16;;;;;;;6.78;3.10;;;;;;;12.43;58.96;100715.03;4204093;28;20039;-69
2023/01/02 06:48:20;;;;;;;8.80;3.85;;;;;;;12.40;58.78;100724.53;4195199;28;20037;-69
2023/01/02 06:50:23;;;;;;;9.60;3.75;;;;;;;12.40;58.71;100716.72;4204399;28;20063;-68
2023/01/02 06:52:34;;;;;;;10.48;3.40;;;;;;;12.36;58.86;100714.94;4193939;28;20494;-69
2023/01/02 06:54:37;;;;;;;7.25;2.95;;;;;;;12.33;59.02;100717.50;4196871;28;20044;-72
2023/01/02 06:56:40;;;;;;;7.22;2.90;;;;;;;12.37;58.74;100718.44;4204532;28;20118;-69
2023/01/02 06:58:43;;;;;;;7.63;3.10;;;;;;;12.36;59.17;100714.94;4206706;28;20048;-69
2023/01/02 07:00:46;;;;;;;11.27;3.65;;;;;;;12.34;58.96;100719.25;4200104;28;20033;-69
2023/01/02 07:02:49;;;;;;;7.45;2.67;;;;;;;12.33;59.32;100724.47;4193428;28;20036;-69
2023/01/02 07:04:53;;;;;;;4.57;2.50;;;;;;;12.27;59.39;100724.41;4208393;28;20123;-69
2023/01/02 07:06:56;;;;;;;7.38;3.17;;;;;;;12.25;59.52;100723.50;4200186;28;20098;-69
2023/01/02 07:08:59;;;;;;;11.10;3.45;;;;;;;12.27;59.64;100725.25;4198763;28;20037;-69
2023/01/02 07:11:12;;;;;;;7.45;3.03;;;;;;;12.26;59.24;100725.25;4208739;28;20055;-68
2023/01/02 07:13:15;;;;;;;7.50;3.20;;;;;;;12.23;59.56;100731.28;4200004;28;20051;-68
2023/01/02 07:15:18;;;;;;;9.20;3.10;;;;;;;12.16;59.61;100732.97;4191806;28;20033;-68
2023/01/02 07:17:21;;;;;;;9.27;3.40;;;;;;;12.20;59.44;100731.25;4198345;28;20110;-69
2023/01/02 07:19:24;;;;;;;12.18;3.08;;;;;;;12.16;60.09;100738.19;4199770;28;20444;-68
2023/01/02 07:21:28;;;;;;;4.97;2.22;;;;;;;12.17;60.08;100741.66;4213709;28;20036;-69
2023/01/02 07:23:31;;;;;;;9.40;3.30;;;;;;;12.17;59.67;100734.69;4199026;28;20163;-68
2023/01/02 07:25:34;;;;;;;11.40;3.67;;;;;;;12.14;60.16;100737.28;4198907;28;20048;-68
2023/01/02 07:27:44;;;;;;;8.38;2.80;;;;;;;12.13;59.95;100738.13;4196940;28;20071;-68
2023/01/02 07:29:47;;;;;;;7.15;2.90;;;;;;;12.15;59.93;100739.03;4205363;28;20036;-69
2023/01/02 07:31:49;;;;;;;6.47;2.55;;;;;;;12.18;59.54;100740.81;4189050;28;20041;-68
2023/01/02 07:33:52;;;;;;;6.22;2.80;;;;;;;12.17;59.42;100746.88;4199088;28;20093;-69
2023/01/02 07:35:57;;;;;;;9.13;3.35;;;;;;;12.22;59.41;100743.47;4186507;28;20055;-69
2023/01/02 07:38:01;;;;;;;7.82;3.03;;;;;;;12.24;59.41;100740.88;4191661;28;20123;-68
2023/01/02 07:40:05;;;;;;;9.10;3.47;;;;;;;12.25;59.52;100741.72;4198321;28;20102;-68
2023/01/02 07:42:09;;;;;;;10.05;2.75;;;;;;;12.20;59.53;100752.13;4192346;28;20072;-68
2023/01/02 07:44:11;;;;;;;5.47;2.88;;;;;;;12.21;59.09;100752.13;4194743;28;20040;-68
2023/01/02 07:46:16;;;;;;;8.93;3.22;;;;;;;12.26;58.85;100752.19;4198541;28;20037;-68
2023/01/02 07:48:19;;;;;;;9.23;2.78;;;;;;;12.29;59.34;100756.56;4197942;28;20071;-68
2023/01/02 07:50:22;;;;;;;7.85;2.92;;;;;;;12.27;59.07;100760.91;4205049;28;20036;-68
2023/01/02 07:52:25;;;;;;;7.50;2.67;;;;;;;12.28;59.49;100757.41;4196589;28;20040;-68
2023/01/02 07:54:29;;;;;;;7.07;2.72;;;;;;;12.29;59.46;100761.78;4195977;28;20059;-68
2023/01/02 07:56:32;;;;;;;9.02;3.10;;;;;;;12.32;59.26;100769.63;4188875;28;20441;-68
2023/01/02 07:58:35;;;;;;;8.10;2.95;;;;;;;12.30;59.39;100768.75;4199862;28;20538;-67
2023/01/02 08:00:38;;;;;;;12.40;2.92;;;;;;;12.32;59.35;100764.41;4199747;28;20040;-68
2023/01/02 08:02:41;;;;;;;7.22;2.35;;;;;;;12.33;59.21;100766.16;4207405;28;20033;-68
2023/01/02 08:04:44;;;;;;;8.10;2.80;;;;;;;12.35;59.03;100767.06;4202994;28;20040;-68
2023/01/02 08:06:47;;;;;;;10.60;3.17;;;;;;;12.37;58.66;100767.97;4197607;28;20110;-67
2023/01/02 08:08:50;;;;;;;8.23;2.38;;;;;;;12.37;58.87;100763.63;4193589;28;20051;-67
2023/01/02 08:10:55;;;;;;;8.82;2.40;;;;;;;12.40;58.75;100762.78;4197032;28;20032;-68
2023/01/02 08:12:57;;;;;;;4.53;2.63;;;;;;;12.40;58.46;100768.00;4197229;28;20405;-68
2023/01/02 08:15:00;;;;;;;11.68;3.20;;;;;;;12.46;57.68;100770.66;4193529;28;20560;-68
2023/01/02 08:17:03;;;;;;;5.93;2.13;;;;;;;12.48;57.79;100779.38;4195145;28;20068;-68
2023/01/02 08:19:06;;;;;;;5.82;2.20;;;;;;;12.52;58.08;100778.56;4197931;28;20044;-68
2023/01/02 08:21:10;;;;;;;6.82;2.55;;;;;;;12.58;57.72;100788.19;4197090;28;20166;-68
2023/01/02 08:23:13;;;;;;;8.67;3.80;;;;;;;12.54;58.14;100796.81;4190562;28;20067;-68
2023/01/02 08:25:16;;;;;;;7.63;2.22;;;;;;;12.58;58.34;100793.41;4193302;28;20040;-68
2023/01/02 08:27:20;;;;;;;6.80;2.53;;;;;;;12.62;58.12;100802.16;4196190;28;20543;-68
2023/01/02 08:29:23;;;;;;;11.63;3.05;;;;;;;12.68;57.83;100797.88;4179059;28;20063;-68
2023/01/02 08:31:26;;;;;;;12.20;2.88;;;;;;;12.67;58.09;100803.94;4203462;28;20028;-68
2023/01/02 08:33:29;;;;;;;9.13;2.78;;;;;;;12.68;57.88;100802.22;4195392;28;20406;-68
2023/01/02 08:35:31;;;;;;;4.70;2.20;;;;;;;12.73;57.35;100805.72;4198018;28;20036;-67
2023/01/02 08:37:41;;;;;;;11.60;3.22;;;;;;;12.77;56.75;100802.31;4194452;28;20043;-68
2023/01/02 08:39:51;;;;;;;11.93;2.65;;;;;;;12.79;57.07;100804.94;4196744;28;20124;-68
2023/01/02 08:41:54;;;;;;;10.25;3.25;;;;;;;12.81;57.49;100805.84;4213586;28;20093;-67
2023/01/02 08:43:58;;;;;;;12.27;2.60;;;;;;;12.80;56.88;100818.00;4197801;28;20033;-67
2023/01/02 08:46:03;;;;;;;7.15;2.65;;;;;;;12.83;56.42;100818.00;4195914;28;20044;-69
2023/01/02 08:48:07;;;;;;;7.95;2.70;;;;;;;12.86;56.98;100825.00;4198621;28;20589;-69
2023/01/02 08:50:23;;;;;;;12.55;3.25;;;;;;;12.89;57.25;100827.66;4209584;28;20124;-69
2023/01/02 08:52:25;;;;;;;6.00;2.35;;;;;;;12.91;57.67;100824.19;4195653;28;20086;-70
2023/01/02 08:54:28;;;;;;;8.15;2.20;;;;;;;12.91;57.35;100823.34;4199774;28;20040;-69
2023/01/02 08:56:32;;;;;;;8.70;2.70;;;;;;;12.95;57.45;100830.31;4203258;28;20032;-68
2023/01/02 08:58:35;;;;;;;13.80;3.70;;;;;;;12.98;57.21;100829.47;4195529;28;20036;-68
2023/01/02 09:00:39;;;;;;;10.10;2.83;;;;;;;12.97;56.94;100832.97;4194619;28;20037;-68
2023/01/02 09:02:42;;;;;;;11.73;3.22;;;;;;;13.01;57.24;100834.72;4198905;28;20453;-68
2023/01/02 09:04:45;;;;;;;5.85;2.17;;;;;;;12.96;57.71;100831.22;4195661;28;20036;-68
2023/01/02 09:06:48;;;;;;;10.70;2.47;;;;;;;12.99;57.39;100836.47;4204873;28;20032;-69
2023/01/02 09:08:52;;;;;;;9.48;2.45;;;;;;;13.00;57.47;100835.59;4192032;28;20388;-68
2023/01/02 09:10:54;;;;;;;6.40;2.42;;;;;;;13.01;57.51;100839.94;4186487;28;20041;-69
2023/01/02 09:12:58;;;;;;;6.18;2.58;;;;;;;13.05;58.80;100844.34;4196765;28;20040;-69
2023/01/02 09:15:01;;;;;;;12.57;3.30;;;;;;;13.06;58.29;100851.31;4204541;28;20052;-69
2023/01/02 09:17:05;;;;;;;8.00;2.47;;;;;;;13.10;57.43;100861.81;4195115;28;20044;-68
2023/01/02 09:19:08;;;;;;;13.00;3.13;;;;;;;13.08;56.87;100858.31;4196350;28;20052;-69
2023/01/02 09:21:10;;;;;;;9.32;3.63;;;;;;;13.15;56.19;100856.63;4187405;28;20041;-68
2023/01/02 09:23:13;;;;;;;11.95;3.13;;;;;;;13.19;56.46;100854.94;4205208;28;20089;-69
2023/01/02 09:25:16;;;;;;;9.55;2.90;;;;;;;13.13;56.67;100855.75;4196857;28;20067;-69
2023/01/02 09:27:26;;;;;;;8.07;2.63;;;;;;;13.20;56.01;100860.16;4193230;28;20036;-69
2023/01/02 09:29:29;;;;;;;7.78;3.22;;;;;;;13.25;56.50;100858.47;4200763;28;20032;-69
2023/01/02 09:31:32;;;;;;;8.80;2.65;;;;;;;13.25;56.73;100866.28;4206401;28;20044;-69
2023/01/02 09:33:36;;;;;;;10.77;2.53;;;;;;;13.26;56.87;100870.66;4195157;28;20036;-69
2023/01/02 09:35:39;;;;;;;9.60;2.90;;;;;;;13.28;56.49;100874.16;4203193;28;20051;-69
2023/01/02 09:37:42;;;;;;;9.27;3.63;;;;;;;13.33;56.60;100886.38;4201413;28;20043;-69
2023/01/02 09:39:45;;;;;;;10.50;2.65;;;;;;;13.37;56.49;100883.84;4202224;28;20119;-69
2023/01/02 09:41:51;;;;;;;14.63;3.58;;;;;;;13.34;55.26;100878.59;4204501;28;20298;-70